createdAt,value
2022-10-15T00:00:09.332Z,100.00
2022-10-15T00:02:36.029Z,100.00
2022-10-15T00:05:02.638Z,100.00
2022-10-15T00:07:29.628Z,100.00
2022-10-15T00:09:56.318Z,100.00
2022-10-15T00:12:23.858Z,100.00
2022-10-15T00:14:50.416Z,100.00
2022-10-15T00:17:17.019Z,100.00
2022-10-15T00:19:43.683Z,100.00
2022-10-15T00:22:10.697Z,100.00
2022-10-15T00:24:37.681Z,100.00
2022-10-15T00:27:04.317Z,100.00
2022-10-15T00:29:30.949Z,100.00
2022-10-15T00:31:57.656Z,100.00
2022-10-15T00:34:24.328Z,100.00
2022-10-15T00:36:51.234Z,100.00
2022-10-15T00:39:17.944Z,100.00
2022-10-15T00:41:45.594Z,100.00
2022-10-15T00:44:21.205Z,100.00
2022-10-15T00:46:54.930Z,100.00
2022-10-15T00:49:25.842Z,100.00
2022-10-15T00:52:39.089Z,100.00
2022-10-15T00:55:11.857Z,100.00
2022-10-15T00:57:40.321Z,100.00
2022-10-15T01:00:11.631Z,100.00
2022-10-15T01:02:38.375Z,100.00
2022-10-15T01:05:05.631Z,100.00
2022-10-15T01:07:32.316Z,100.00
2022-10-15T01:09:59.207Z,100.00
2022-10-15T01:12:46.645Z,100.00
2022-10-15T01:15:18.495Z,100.00
2022-10-15T01:17:56.346Z,100.00
2022-10-15T01:20:46.215Z,100.00
2022-10-15T01:23:23.618Z,100.00
2022-10-15T01:26:20.153Z,100.00
2022-10-15T01:29:13.558Z,100.00
2022-10-15T01:32:01.908Z,100.00
2022-10-15T01:34:44.658Z,100.00
2022-10-15T01:37:24.472Z,100.00
2022-10-15T01:39:57.560Z,100.00
2022-10-15T01:42:33.360Z,100.00
2022-10-15T01:45:07.224Z,100.00
2022-10-15T01:47:41.589Z,100.00
2022-10-15T01:50:11.305Z,100.00
2022-10-15T01:52:40.485Z,100.00
2022-10-15T01:55:10.466Z,100.00
2022-10-15T01:57:39.186Z,100.00
2022-10-15T02:00:06.492Z,100.00
2022-10-15T02:02:33.111Z,100.00
2022-10-15T02:04:59.784Z,100.00
2022-10-15T02:07:44.025Z,100.00
2022-10-15T02:10:28.419Z,100.00
2022-10-15T02:13:33.870Z,100.00
2022-10-15T02:16:13.206Z,100.00
2022-10-15T02:19:09.224Z,100.00
2022-10-15T02:21:48.122Z,100.00
2022-10-15T02:24:24.078Z,100.00
2022-10-15T02:26:54.585Z,100.00
2022-10-15T02:29:25.143Z,100.00
2022-10-15T02:31:54.385Z,100.00
2022-10-15T02:34:25.793Z,100.00
2022-10-15T02:36:55.000Z,100.00
2022-10-15T02:39:26.918Z,100.00
2022-10-15T02:41:54.286Z,100.00
2022-10-15T02:44:21.410Z,100.00
2022-10-15T02:46:48.180Z,100.00
2022-10-15T02:49:14.772Z,100.00
2022-10-15T02:51:41.526Z,100.00
2022-10-15T02:54:08.709Z,100.00
2022-10-15T02:56:35.951Z,100.00
2022-10-15T02:59:02.686Z,100.00
2022-10-15T03:01:29.536Z,100.00
2022-10-15T03:03:56.506Z,100.00
2022-10-15T03:06:23.077Z,100.00
2022-10-15T03:08:49.703Z,100.00
2022-10-15T03:11:16.787Z,100.00
2022-10-15T03:13:43.514Z,100.00
2022-10-15T03:16:12.632Z,100.00
2022-10-15T03:18:40.834Z,100.00
2022-10-15T03:21:07.967Z,100.00
2022-10-15T03:23:34.764Z,100.00
2022-10-15T03:26:01.704Z,100.00
2022-10-15T03:28:28.472Z,100.00
2022-10-15T03:30:55.357Z,100.00
2022-10-15T03:33:24.450Z,100.00
2022-10-15T03:35:53.221Z,100.00
2022-10-15T03:38:19.865Z,100.00
2022-10-15T03:40:47.135Z,100.00
2022-10-15T03:43:13.906Z,100.00
2022-10-15T03:45:40.619Z,100.00
2022-10-15T03:48:07.381Z,100.00
2022-10-15T03:50:34.029Z,100.00
2022-10-15T03:53:03.840Z,100.00
2022-10-15T03:55:30.500Z,100.00
2022-10-15T03:57:57.111Z,100.00
2022-10-15T04:00:23.727Z,100.00
2022-10-15T04:02:50.735Z,100.00
2022-10-15T04:05:17.595Z,100.00
2022-10-15T04:07:44.172Z,100.00
2022-10-15T04:10:10.798Z,100.00
2022-10-15T04:12:37.425Z,100.00
2022-10-15T04:15:04.617Z,100.00
2022-10-15T04:17:31.237Z,100.00
2022-10-15T04:19:58.019Z,100.00
2022-10-15T04:22:24.823Z,100.00
2022-10-15T04:24:51.709Z,100.00
2022-10-15T04:27:18.426Z,100.00
2022-10-15T04:29:47.866Z,100.00
2022-10-15T04:32:15.325Z,100.00
2022-10-15T04:34:42.053Z,100.00
2022-10-15T04:37:08.898Z,100.00
2022-10-15T04:39:35.688Z,100.00
2022-10-15T04:42:02.365Z,100.00
2022-10-15T04:44:29.130Z,100.00
2022-10-15T04:46:55.770Z,100.00
2022-10-15T04:49:22.571Z,100.00
2022-10-15T04:51:49.316Z,100.00
2022-10-15T04:54:16.047Z,100.00
2022-10-15T04:56:42.715Z,100.00
2022-10-15T04:59:09.746Z,100.00
2022-10-15T05:01:36.491Z,100.00
2022-10-15T05:04:03.215Z,100.00
2022-10-15T05:06:29.863Z,100.00
2022-10-15T05:08:56.486Z,100.00
2022-10-15T05:11:26.096Z,100.00
2022-10-15T05:13:54.581Z,100.00
2022-10-15T05:16:26.738Z,100.00
2022-10-15T05:18:57.268Z,100.00
2022-10-15T05:21:24.102Z,100.00
2022-10-15T05:23:51.143Z,100.00
2022-10-15T05:26:20.490Z,100.00
2022-10-15T05:28:47.461Z,100.00
2022-10-15T05:31:19.213Z,100.00
2022-10-15T05:33:47.580Z,100.00
2022-10-15T05:36:28.161Z,100.00
2022-10-15T05:39:00.720Z,100.00
2022-10-15T05:41:28.077Z,100.00
2022-10-15T05:43:56.727Z,100.00
2022-10-15T05:46:24.317Z,100.00
2022-10-15T05:48:52.556Z,100.00
2022-10-15T05:51:19.807Z,100.00
2022-10-15T05:53:46.582Z,100.00
2022-10-15T05:56:14.683Z,100.00
2022-10-15T05:58:41.680Z,100.00
2022-10-15T06:01:10.913Z,100.00
2022-10-15T06:03:38.322Z,100.00
2022-10-15T06:06:04.956Z,100.00
2022-10-15T06:08:32.154Z,100.00
2022-10-15T06:11:08.369Z,100.00
2022-10-15T06:13:37.973Z,100.00
2022-10-15T06:16:04.874Z,100.00
2022-10-15T06:18:32.652Z,100.00
2022-10-15T06:20:59.737Z,100.00
2022-10-15T06:23:26.474Z,100.00
2022-10-15T06:25:53.215Z,100.00
2022-10-15T06:28:19.874Z,100.00
2022-10-15T06:30:46.720Z,100.00
2022-10-15T06:33:16.065Z,100.00
2022-10-15T06:35:42.720Z,100.00
2022-10-15T06:38:09.358Z,100.00
2022-10-15T06:40:37.745Z,100.00
2022-10-15T06:43:09.316Z,100.00
2022-10-15T06:45:37.996Z,100.00
2022-10-15T06:48:06.209Z,100.00
2022-10-15T06:50:35.032Z,100.00
2022-10-15T06:53:01.777Z,100.00
2022-10-15T06:55:31.894Z,100.00
2022-10-15T06:57:59.122Z,100.00
2022-10-15T07:00:26.584Z,100.00
2022-10-15T07:02:54.348Z,100.00
2022-10-15T07:05:21.131Z,100.00
2022-10-15T07:07:55.858Z,100.00
2022-10-15T07:10:23.250Z,100.00
2022-10-15T07:12:50.136Z,100.00
2022-10-15T07:15:17.634Z,100.00
2022-10-15T07:17:49.251Z,100.00
2022-10-15T07:20:20.239Z,100.00
2022-10-15T07:22:50.153Z,100.00
2022-10-15T07:25:16.962Z,100.00
2022-10-15T07:27:43.720Z,100.00
2022-10-15T07:30:10.758Z,100.00
2022-10-15T07:32:37.490Z,100.00
2022-10-15T07:35:05.344Z,100.00
2022-10-15T07:37:32.156Z,100.00
2022-10-15T07:39:58.980Z,100.00
2022-10-15T07:42:26.213Z,100.00
2022-10-15T07:44:53.498Z,100.00
2022-10-15T07:47:20.368Z,100.00
2022-10-15T07:49:47.166Z,100.00
2022-10-15T07:52:13.798Z,100.00
2022-10-15T07:54:40.446Z,100.00
2022-10-15T07:57:07.225Z,100.00
2022-10-15T07:59:34.816Z,100.00
2022-10-15T08:02:01.967Z,100.00
2022-10-15T08:04:28.807Z,100.00
2022-10-15T08:06:55.475Z,100.00
2022-10-15T08:09:22.589Z,100.00
2022-10-15T08:11:49.203Z,100.00
2022-10-15T08:14:15.845Z,100.00
2022-10-15T08:16:42.416Z,95.77
2022-10-15T08:19:09.266Z,92.03
2022-10-15T08:21:35.897Z,85.53
2022-10-15T08:24:02.900Z,85.58
2022-10-15T08:26:29.741Z,88.78
2022-10-15T08:28:56.477Z,84.13
2022-10-15T08:31:23.160Z,80.27
2022-10-15T08:33:50.493Z,81.30
2022-10-15T08:36:17.259Z,79.75
2022-10-15T08:38:44.030Z,81.82
2022-10-15T08:41:20.729Z,81.75
2022-10-15T08:43:48.497Z,76.52
2022-10-15T08:46:25.343Z,78.15
2022-10-15T08:48:55.686Z,80.82
2022-10-15T08:51:40.467Z,80.76
2022-10-15T08:54:14.396Z,81.12
2022-10-15T08:56:45.952Z,79.96
2022-10-15T08:59:21.803Z,77.85
2022-10-15T09:01:55.301Z,74.60
2022-10-15T09:04:46.692Z,72.05
2022-10-15T09:07:22.209Z,72.60
2022-10-15T09:09:52.464Z,72.81
2022-10-15T09:12:48.548Z,73.36
2022-10-15T09:15:22.552Z,72.33
2022-10-15T09:17:54.223Z,74.34
2022-10-15T09:20:31.196Z,74.72
2022-10-15T09:22:58.018Z,75.39
2022-10-15T09:25:27.505Z,73.02
2022-10-15T09:28:01.602Z,70.21
2022-10-15T09:30:34.642Z,71.00
2022-10-15T09:33:32.054Z,70.07
2022-10-15T09:36:04.763Z,66.09
2022-10-15T09:38:43.026Z,65.12
2022-10-15T09:41:33.316Z,59.96
2022-10-15T09:44:03.689Z,58.39
2022-10-15T09:46:33.467Z,57.61
2022-10-15T09:49:09.095Z,56.82
2022-10-15T09:51:46.532Z,56.68
2022-10-15T09:54:33.243Z,57.49
2022-10-15T09:56:59.809Z,56.22
2022-10-15T09:59:26.730Z,55.32
2022-10-15T10:02:00.389Z,54.55
2022-10-15T10:04:30.102Z,55.00
2022-10-15T10:06:59.388Z,56.49
2022-10-15T10:09:31.856Z,57.22
2022-10-15T10:12:01.697Z,57.11
2022-10-15T10:14:32.346Z,54.84
2022-10-15T10:17:20.096Z,55.11
2022-10-15T10:20:04.921Z,55.90
2022-10-15T10:22:46.444Z,57.38
2022-10-15T10:25:27.701Z,56.04
2022-10-15T10:28:17.116Z,57.36
2022-10-15T10:31:00.393Z,54.48
2022-10-15T10:33:34.842Z,53.60
2022-10-15T10:36:02.189Z,54.54
2022-10-15T10:38:33.880Z,53.40
2022-10-15T10:41:11.600Z,52.56
2022-10-15T10:43:53.550Z,54.52
2022-10-15T10:46:22.713Z,54.00
2022-10-15T10:48:53.614Z,54.18
2022-10-15T10:51:26.707Z,54.21
2022-10-15T10:54:05.472Z,51.48
2022-10-15T10:56:35.093Z,50.03
2022-10-15T10:59:27.981Z,48.99
2022-10-15T11:01:56.929Z,48.64
2022-10-15T11:04:29.324Z,48.46
2022-10-15T11:07:04.598Z,49.08
2022-10-15T11:10:07.733Z,49.76
2022-10-15T11:13:04.909Z,50.25
2022-10-15T11:15:54.236Z,50.13
2022-10-15T11:18:48.004Z,49.91
2022-10-15T11:21:25.561Z,49.16
2022-10-15T11:24:13.926Z,49.18
2022-10-15T11:27:10.098Z,49.19
2022-10-15T11:30:01.503Z,47.64
2022-10-15T11:33:05.397Z,47.00
2022-10-15T11:35:54.833Z,45.33
2022-10-15T11:38:50.033Z,46.35
2022-10-15T11:41:19.333Z,47.00
2022-10-15T11:43:53.805Z,46.58
2022-10-15T11:46:24.836Z,46.86
2022-10-15T11:49:13.301Z,46.82
2022-10-15T11:52:05.287Z,47.32
2022-10-15T11:54:37.682Z,47.79
2022-10-15T11:57:08.276Z,47.96
2022-10-15T11:59:52.170Z,47.61
2022-10-15T12:02:29.571Z,48.17
2022-10-15T12:05:09.287Z,46.94
2022-10-15T12:07:45.516Z,47.42
2022-10-15T12:10:12.505Z,47.66
2022-10-15T12:12:44.195Z,48.53
2022-10-15T12:15:35.515Z,49.04
2022-10-15T12:18:14.476Z,48.36
2022-10-15T12:20:43.147Z,48.13
2022-10-15T12:23:38.794Z,47.39
2022-10-15T12:26:23.808Z,47.16
2022-10-15T12:28:59.455Z,47.18
2022-10-15T12:31:52.113Z,47.91
2022-10-15T12:34:39.504Z,48.47
2022-10-15T12:37:18.912Z,48.60
2022-10-15T12:39:52.240Z,49.14
2022-10-15T12:42:26.057Z,49.01
2022-10-15T12:44:53.164Z,49.82
2022-10-15T12:47:55.534Z,49.50
2022-10-15T12:50:27.833Z,49.69
2022-10-15T12:53:06.445Z,50.13
2022-10-15T12:55:39.554Z,50.38
2022-10-15T12:58:18.125Z,51.29
2022-10-15T13:00:45.030Z,51.48
2022-10-15T13:03:20.816Z,51.33
2022-10-15T13:05:50.218Z,51.00
2022-10-15T13:08:24.970Z,51.09
2022-10-15T13:10:59.634Z,50.71
2022-10-15T13:13:29.400Z,50.75
2022-10-15T13:16:01.699Z,50.76
2022-10-15T13:18:31.728Z,50.83
2022-10-15T13:20:59.737Z,50.76
2022-10-15T13:23:32.046Z,50.48
2022-10-15T13:26:16.717Z,50.67
2022-10-15T13:28:44.203Z,50.85
2022-10-15T13:31:19.560Z,51.88
2022-10-15T13:33:51.239Z,52.20
2022-10-15T13:36:25.388Z,52.66
2022-10-15T13:39:00.698Z,53.48
2022-10-15T13:41:31.088Z,53.70
2022-10-15T13:44:02.541Z,53.95
2022-10-15T13:46:36.206Z,54.25
2022-10-15T13:49:10.696Z,53.68
2022-10-15T13:51:46.068Z,53.41
2022-10-15T13:54:19.219Z,53.57
2022-10-15T13:57:14.501Z,53.01
2022-10-15T13:59:45.621Z,53.88
2022-10-15T14:02:12.763Z,53.63
2022-10-15T14:04:40.987Z,54.04
2022-10-15T14:07:28.271Z,54.13
2022-10-15T14:09:55.336Z,54.07
2022-10-15T14:12:22.132Z,52.80
2022-10-15T14:14:49.387Z,53.84
2022-10-15T14:17:19.160Z,52.93
2022-10-15T14:20:21.687Z,52.84
2022-10-15T14:22:48.342Z,53.22
2022-10-15T14:25:22.434Z,53.41
2022-10-15T14:27:49.122Z,54.15
2022-10-15T14:30:26.323Z,54.46
2022-10-15T14:32:53.155Z,55.17
2022-10-15T14:35:31.782Z,55.79
2022-10-15T14:38:10.454Z,56.46
2022-10-15T14:40:37.455Z,55.92
2022-10-15T14:43:06.024Z,55.78
2022-10-15T14:45:43.535Z,55.83
2022-10-15T14:48:19.101Z,56.32
2022-10-15T14:50:47.342Z,57.03
2022-10-15T14:53:37.045Z,56.72
2022-10-15T14:56:25.118Z,56.74
2022-10-15T14:58:56.651Z,57.57
2022-10-15T15:01:24.301Z,58.08
2022-10-15T15:03:53.285Z,58.65
2022-10-15T15:06:20.791Z,58.96
2022-10-15T15:08:48.208Z,59.80
2022-10-15T15:11:19.223Z,60.71
2022-10-15T15:13:47.251Z,61.44
2022-10-15T15:16:15.674Z,62.19
2022-10-15T15:18:44.034Z,63.77
2022-10-15T15:21:21.627Z,64.96
2022-10-15T15:23:49.177Z,65.09
2022-10-15T15:26:16.080Z,65.70
2022-10-15T15:28:42.938Z,66.67
2022-10-15T15:31:17.283Z,67.97
2022-10-15T15:33:44.118Z,69.79
2022-10-15T15:36:19.158Z,69.97
2022-10-15T15:38:50.672Z,70.88
2022-10-15T15:41:19.751Z,70.56
2022-10-15T15:43:46.905Z,71.61
2022-10-15T15:46:13.888Z,73.11
2022-10-15T15:48:40.856Z,74.26
2022-10-15T15:51:21.063Z,74.56
2022-10-15T15:53:48.694Z,75.60
2022-10-15T15:56:15.367Z,75.89
2022-10-15T15:58:42.125Z,76.81
2022-10-15T16:01:08.883Z,77.01
2022-10-15T16:03:35.545Z,77.57
2022-10-15T16:06:02.262Z,78.97
2022-10-15T16:08:28.943Z,79.91
2022-10-15T16:10:55.529Z,81.11
2022-10-15T16:13:22.099Z,82.53
2022-10-15T16:15:48.695Z,83.96
2022-10-15T16:18:15.356Z,85.34
2022-10-15T16:20:46.276Z,87.02
2022-10-15T16:23:15.620Z,86.66
2022-10-15T16:25:42.579Z,86.75
2022-10-15T16:28:09.173Z,88.34
2022-10-15T16:30:35.797Z,91.68
2022-10-15T16:33:02.563Z,90.77
2022-10-15T16:35:29.368Z,92.52
2022-10-15T16:37:56.280Z,95.23
2022-10-15T16:40:23.274Z,95.62
2022-10-15T16:42:50.282Z,98.06
2022-10-15T16:45:17.274Z,97.05
2022-10-15T16:47:43.900Z,100.00
2022-10-15T16:50:11.251Z,99.21
2022-10-15T16:52:38.040Z,99.45
2022-10-15T16:55:05.548Z,100.00
2022-10-15T16:57:32.589Z,100.00
2022-10-15T16:59:59.571Z,100.00
2022-10-15T17:02:26.509Z,100.00
2022-10-15T17:04:53.456Z,100.00
2022-10-15T17:07:20.120Z,100.00
2022-10-15T17:12:19.553Z,100.00
2022-10-15T17:14:53.207Z,100.00
2022-10-15T17:17:20.067Z,100.00
2022-10-15T17:19:46.946Z,100.00
2022-10-15T17:22:13.520Z,100.00
2022-10-15T17:24:40.382Z,100.00
2022-10-15T17:27:07.103Z,100.00
2022-10-15T17:29:34.720Z,100.00
2022-10-15T17:32:03.293Z,100.00
2022-10-15T17:34:30.356Z,100.00
2022-10-15T17:36:57.491Z,100.00
2022-10-15T17:39:24.364Z,100.00
2022-10-15T17:41:52.074Z,100.00
2022-10-15T17:44:19.934Z,100.00
2022-10-15T17:46:46.623Z,100.00
2022-10-15T17:49:18.189Z,100.00
2022-10-15T17:51:45.441Z,100.00
2022-10-15T17:54:12.266Z,100.00
2022-10-15T17:56:39.329Z,100.00
2022-10-15T17:59:09.337Z,100.00
2022-10-15T18:01:57.274Z,100.00
2022-10-15T18:04:25.525Z,100.00
2022-10-15T18:06:52.318Z,100.00
2022-10-15T18:09:18.953Z,100.00
2022-10-15T18:11:46.573Z,100.00
2022-10-15T18:14:13.388Z,100.00
2022-10-15T18:16:40.113Z,100.00
2022-10-15T18:19:07.150Z,100.00
2022-10-15T18:21:33.873Z,100.00
2022-10-15T18:24:00.693Z,100.00
2022-10-15T18:26:27.409Z,100.00
2022-10-15T18:28:54.789Z,100.00
2022-10-15T18:31:22.808Z,100.00
2022-10-15T18:33:52.158Z,100.00
2022-10-15T18:36:25.392Z,100.00
2022-10-15T18:38:52.723Z,100.00
2022-10-15T18:41:33.245Z,100.00
2022-10-15T18:44:05.983Z,100.00
2022-10-15T18:46:34.165Z,100.00
2022-10-15T18:49:01.561Z,100.00
2022-10-15T18:51:28.972Z,100.00
2022-10-15T18:53:55.807Z,100.00
2022-10-15T18:56:23.254Z,100.00
2022-10-15T18:58:50.888Z,100.00
2022-10-15T19:01:33.778Z,100.00
2022-10-15T19:04:03.599Z,100.00
2022-10-15T19:06:36.268Z,100.00
2022-10-15T19:09:05.774Z,100.00
2022-10-15T19:11:33.842Z,100.00
2022-10-15T19:14:01.297Z,100.00
2022-10-15T19:16:28.639Z,100.00
2022-10-15T19:18:55.339Z,100.00
2022-10-15T19:21:22.069Z,100.00
2022-10-15T19:23:48.957Z,100.00
2022-10-15T19:26:16.413Z,100.00
2022-10-15T19:28:43.125Z,100.00
2022-10-15T19:31:13.113Z,100.00
2022-10-15T19:33:39.725Z,100.00
2022-10-15T19:36:06.852Z,100.00
2022-10-15T19:38:33.886Z,100.00
2022-10-15T19:41:06.587Z,100.00
2022-10-15T19:43:33.316Z,100.00
2022-10-15T19:46:03.703Z,100.00
2022-10-15T19:48:30.557Z,100.00
2022-10-15T19:50:57.407Z,100.00
2022-10-15T19:53:24.017Z,100.00
2022-10-15T19:56:00.641Z,100.00
2022-10-15T19:58:27.390Z,100.00
2022-10-15T20:00:55.378Z,100.00
2022-10-15T20:03:24.062Z,100.00
2022-10-15T20:05:51.259Z,100.00
2022-10-15T20:08:18.696Z,100.00
2022-10-15T20:10:47.740Z,100.00
2022-10-15T20:13:15.435Z,100.00
2022-10-15T20:15:43.576Z,100.00
2022-10-15T20:18:11.012Z,100.00
2022-10-15T20:20:41.964Z,100.00
2022-10-15T20:23:09.270Z,100.00
2022-10-15T20:25:39.497Z,100.00
2022-10-15T20:28:06.499Z,100.00
2022-10-15T20:30:33.223Z,100.00
2022-10-15T20:32:59.948Z,100.00
2022-10-15T20:35:26.632Z,100.00
2022-10-15T20:37:53.236Z,100.00
2022-10-15T20:40:19.793Z,100.00
2022-10-15T20:42:46.485Z,100.00
2022-10-15T20:45:16.705Z,100.00
2022-10-15T20:47:50.524Z,100.00
2022-10-15T20:50:25.631Z,100.00
2022-10-15T20:52:55.810Z,100.00
2022-10-15T20:55:23.217Z,100.00
2022-10-15T20:57:50.396Z,100.00
2022-10-15T21:00:17.138Z,100.00
2022-10-15T21:02:43.822Z,100.00
2022-10-15T21:05:10.598Z,100.00
2022-10-15T21:07:37.688Z,100.00
2022-10-15T21:10:04.878Z,100.00
2022-10-15T21:12:31.653Z,100.00
2022-10-15T21:14:58.743Z,100.00
2022-10-15T21:17:25.651Z,100.00
2022-10-15T21:19:53.187Z,100.00
2022-10-15T21:22:20.546Z,100.00
2022-10-15T21:24:47.137Z,100.00
2022-10-15T21:27:13.816Z,100.00
2022-10-15T21:29:42.314Z,100.00
2022-10-15T21:32:09.323Z,100.00
2022-10-15T21:34:36.362Z,100.00
2022-10-15T21:37:03.272Z,100.00
2022-10-15T21:39:30.192Z,100.00
2022-10-15T21:41:56.802Z,100.00
2022-10-15T21:44:23.918Z,100.00
2022-10-15T21:46:50.627Z,100.00
2022-10-15T21:49:17.215Z,100.00
2022-10-15T21:51:44.149Z,100.00
2022-10-15T21:54:11.291Z,100.00
2022-10-15T21:56:38.621Z,100.00
2022-10-15T21:59:05.311Z,100.00
2022-10-15T22:01:34.198Z,100.00
2022-10-15T22:04:06.714Z,100.00
2022-10-15T22:06:35.128Z,100.00
2022-10-15T22:09:03.161Z,100.00
2022-10-15T22:11:32.568Z,100.00
2022-10-15T22:14:03.729Z,100.00
2022-10-15T22:16:32.566Z,100.00
2022-10-15T22:18:59.222Z,100.00
2022-10-15T22:21:31.130Z,100.00
2022-10-15T22:24:04.177Z,100.00
2022-10-15T22:26:34.518Z,100.00
2022-10-15T22:29:03.294Z,100.00
2022-10-15T22:31:30.915Z,100.00
2022-10-15T22:34:00.801Z,100.00
2022-10-15T22:36:31.639Z,100.00
2022-10-15T22:39:04.892Z,100.00
2022-10-15T22:41:36.453Z,100.00
2022-10-15T22:44:03.641Z,100.00
2022-10-15T22:46:36.289Z,100.00
2022-10-15T22:49:03.825Z,100.00
2022-10-15T22:51:30.622Z,100.00
2022-10-15T22:53:58.546Z,100.00
2022-10-15T22:56:26.577Z,100.00
2022-10-15T22:58:54.918Z,100.00
2022-10-15T23:01:23.937Z,100.00
2022-10-15T23:03:52.671Z,100.00
2022-10-15T23:06:20.772Z,100.00
2022-10-15T23:08:47.548Z,100.00
2022-10-15T23:11:18.666Z,100.00
2022-10-15T23:13:46.869Z,100.00
2022-10-15T23:16:17.890Z,100.00
2022-10-15T23:18:46.943Z,100.00
2022-10-15T23:21:19.477Z,100.00
2022-10-15T23:23:46.538Z,100.00
2022-10-15T23:26:16.804Z,100.00
2022-10-15T23:28:44.941Z,100.00
2022-10-15T23:31:29.698Z,100.00
2022-10-15T23:33:57.662Z,100.00
2022-10-15T23:36:25.858Z,100.00
2022-10-15T23:38:54.677Z,100.00
2022-10-15T23:41:21.471Z,100.00
2022-10-15T23:43:48.398Z,100.00
2022-10-15T23:46:15.719Z,100.00
2022-10-15T23:48:42.881Z,100.00
2022-10-15T23:51:13.665Z,100.00
2022-10-15T23:53:40.858Z,100.00
2022-10-15T23:56:07.626Z,100.00
2022-10-15T23:58:34.843Z,100.00
